Time;durP1;ratioP1;P1;durP2;ratioP2;P2;SDS_P1;SDS_P2;PMS_P1;PMS_P2;Temp;Humidity;BMP_temperature;BMP_pressure;BME280_temperature;BME280_humidity;BME280_pressure;Samples;Min_cycle;Max_cycle;Signal;HPM_P1;HPM_P2
2022/03/31 00:00:57;;;;;;;;;;;19.60;99.90;;;;;;5074405;28;20350;-71
2022/03/31 00:03:23;;;;;;;;;;;19.60;99.90;;;;;;5074083;28;19915;-71
2022/03/31 00:05:50;;;;;;;;;;;19.60;99.90;;;;;;5074543;28;19939;-72
2022/03/31 00:08:18;;;;;;;;;;;19.50;99.90;;;;;;5074282;28;19912;-71
2022/03/31 00:10:46;;;;;;;;;;;19.50;99.90;;;;;;5074481;28;20255;-71
2022/03/31 00:13:16;;;;;;;;;;;19.50;99.90;;;;;;5074461;28;19915;-72
2022/03/31 00:15:43;;;;;;;;;;;19.50;99.90;;;;;;5074296;28;20319;-71
2022/03/31 00:18:10;;;;;;;;;;;19.50;99.90;;;;;;5073889;28;20351;-71
2022/03/31 00:20:37;;;;;;;;;;;19.50;99.90;;;;;;5074220;28;19912;-71
2022/03/31 00:23:05;;;;;;;;;;;19.50;99.90;;;;;;5074203;28;20325;-71
2022/03/31 00:25:32;;;;;;;;;;;19.50;99.90;;;;;;5074233;28;19909;-71
2022/03/31 00:27:59;;;;;;;;;;;19.30;99.90;;;;;;5074071;28;19917;-71
2022/03/31 00:30:26;;;;;;;;;;;19.20;99.90;;;;;;5073829;28;19908;-72
2022/03/31 00:32:53;;;;;;;;;;;19.10;99.90;;;;;;5073824;28;20371;-71
2022/03/31 00:35:20;;;;;;;;;;;19.00;99.90;;;;;;5074031;28;20009;-72
2022/03/31 00:37:47;;;;;;;;;;;18.90;99.90;;;;;;5073936;28;19961;-71
2022/03/31 00:40:18;;;;;;;;;;;19.00;99.90;;;;;;5073635;28;20264;-71
2022/03/31 00:42:45;;;;;;;;;;;19.10;99.90;;;;;;5073911;28;20354;-71
2022/03/31 00:45:13;;;;;;;;;;;19.20;99.90;;;;;;5073722;28;19915;-71
2022/03/31 00:47:40;;;;;;;;;;;19.40;99.90;;;;;;5073452;28;19924;-71
2022/03/31 00:50:07;;;;;;;;;;;19.50;99.90;;;;;;5073652;28;19908;-70
2022/03/31 00:52:34;;;;;;;;;;;19.50;99.90;;;;;;5073667;28;19915;-70
2022/03/31 00:55:01;;;;;;;;;;;19.50;99.90;;;;;;5073725;28;19999;-69
2022/03/31 00:57:28;;;;;;;;;;;19.60;99.90;;;;;;5073593;28;20371;-70
2022/03/31 00:59:56;;;;;;;;;;;19.70;99.90;;;;;;5073529;28;19944;-70
2022/03/31 01:02:22;;;;;;;;;;;19.60;99.90;;;;;;5073288;28;19948;-70
2022/03/31 01:04:50;;;;;;;;;;;19.50;99.90;;;;;;5072307;28;20006;-70
2022/03/31 01:07:17;;;;;;;;;;;19.30;99.90;;;;;;5073448;28;19917;-71
2022/03/31 01:09:43;;;;;;;;;;;19.20;99.90;;;;;;5073588;28;19909;-70
2022/03/31 01:12:10;;;;;;;;;;;19.10;99.90;;;;;;5073303;28;19998;-71
2022/03/31 01:14:37;;;;;;;;;;;19.00;99.90;;;;;;5072244;28;19909;-71
2022/03/31 01:17:03;;;;;;;;;;;18.80;99.90;;;;;;5073409;28;19962;-71
2022/03/31 01:19:30;;;;;;;;;;;18.70;99.90;;;;;;5073295;28;19908;-70
2022/03/31 01:21:57;;;;;;;;;;;18.60;99.90;;;;;;5073377;28;19908;-71
2022/03/31 01:24:24;;;;;;;;;;;18.60;99.90;;;;;;5073123;28;19943;-70
2022/03/31 01:26:50;;;;;;;;;;;18.40;99.90;;;;;;5073125;28;19923;-71
2022/03/31 01:29:17;;;;;;;;;;;18.50;99.90;;;;;;5073427;28;19916;-71
2022/03/31 01:31:44;;;;;;;;;;;18.30;99.90;;;;;;5073346;28;19948;-71
2022/03/31 01:34:11;;;;;;;;;;;18.30;99.90;;;;;;5072918;28;19962;-71
2022/03/31 01:36:38;;;;;;;;;;;18.30;99.90;;;;;;5073210;28;19933;-71
2022/03/31 01:39:05;;;;;;;;;;;18.20;99.90;;;;;;5073282;28;19919;-71
2022/03/31 01:41:31;;;;;;;;;;;18.30;99.90;;;;;;5073240;28;20301;-71
2022/03/31 01:43:58;;;;;;;;;;;18.20;99.90;;;;;;5073037;28;19915;-71
2022/03/31 01:46:25;;;;;;;;;;;18.20;99.90;;;;;;5072861;28;19923;-71
2022/03/31 01:48:52;;;;;;;;;;;18.30;99.90;;;;;;5072880;28;19912;-71
2022/03/31 01:51:19;;;;;;;;;;;18.30;99.90;;;;;;5073037;28;19913;-72
2022/03/31 01:53:47;;;;;;;;;;;18.40;99.90;;;;;;5073018;28;19912;-71
2022/03/31 01:56:13;;;;;;;;;;;18.40;99.90;;;;;;5072754;28;19919;-71
2022/03/31 01:58:40;;;;;;;;;;;18.50;99.90;;;;;;5072956;28;20382;-71
2022/03/31 02:01:07;;;;;;;;;;;18.50;99.90;;;;;;5073026;28;19912;-71
2022/03/31 02:03:33;;;;;;;;;;;18.50;99.90;;;;;;5072584;28;19913;-72
2022/03/31 02:06:00;;;;;;;;;;;18.50;99.90;;;;;;5072741;28;19912;-72
2022/03/31 02:08:27;;;;;;;;;;;18.50;99.90;;;;;;5072674;28;19970;-72
2022/03/31 02:10:53;;;;;;;;;;;18.50;99.90;;;;;;5072835;28;19915;-72
2022/03/31 02:13:20;;;;;;;;;;;18.50;99.90;;;;;;5072860;28;19962;-72
2022/03/31 02:15:47;;;;;;;;;;;18.50;99.90;;;;;;5073985;28;19909;-72
2022/03/31 02:18:14;;;;;;;;;;;18.40;99.90;;;;;;5076182;28;19940;-72
2022/03/31 02:20:41;;;;;;;;;;;18.40;99.90;;;;;;5076494;28;20003;-72
2022/03/31 02:23:08;;;;;;;;;;;18.30;99.90;;;;;;5076601;28;20038;-72
2022/03/31 02:25:34;;;;;;;;;;;18.30;99.90;;;;;;5076447;28;20418;-73
2022/03/31 02:28:01;;;;;;;;;;;18.20;99.90;;;;;;5076327;28;19962;-73
2022/03/31 02:30:29;;;;;;;;;;;18.10;99.90;;;;;;5076230;28;19909;-72
2022/03/31 02:32:55;;;;;;;;;;;17.90;99.90;;;;;;5076063;28;20350;-73
2022/03/31 02:35:23;;;;;;;;;;;18.00;99.90;;;;;;5076223;28;19915;-73
2022/03/31 02:37:50;;;;;;;;;;;18.20;99.90;;;;;;5076130;28;20361;-73
2022/03/31 02:40:16;;;;;;;;;;;18.30;99.90;;;;;;5075925;28;19915;-72
2022/03/31 02:42:43;;;;;;;;;;;18.30;99.90;;;;;;5076155;28;19915;-73
2022/03/31 02:45:10;;;;;;;;;;;18.50;99.90;;;;;;5076172;28;19916;-72
2022/03/31 02:47:36;;;;;;;;;;;18.70;99.90;;;;;;5075896;28;20378;-72
2022/03/31 02:50:05;;;;;;;;;;;18.90;99.90;;;;;;5075924;28;19909;-73
2022/03/31 02:55:24;;;;;;;;;;;19.00;99.90;;;;;;5074558;28;19909;-73
2022/03/31 02:55:30;;;;;;;;;;;19.20;99.90;;;;;;5075812;28;19909;-72
2022/03/31 02:57:57;;;;;;;;;;;19.00;99.90;;;;;;5075913;28;19908;-73
2022/03/31 03:00:24;;;;;;;;;;;18.60;99.90;;;;;;5075617;28;19908;-72
2022/03/31 03:02:51;;;;;;;;;;;18.30;99.90;;;;;;5075588;28;19908;-73
2022/03/31 03:05:18;;;;;;;;;;;18.30;99.90;;;;;;5075653;28;19928;-73
2022/03/31 03:07:45;;;;;;;;;;;18.30;99.90;;;;;;5075594;28;19978;-73
2022/03/31 03:10:13;;;;;;;;;;;18.40;99.90;;;;;;5107989;28;19909;-73
2022/03/31 03:12:41;;;;;;;;;;;18.40;99.90;;;;;;5075480;28;20355;-72
2022/03/31 03:15:09;;;;;;;;;;;18.50;99.90;;;;;;5075482;28;20039;-72
2022/03/31 03:17:36;;;;;;;;;;;18.50;99.90;;;;;;5075423;28;20516;-72
2022/03/31 03:20:03;;;;;;;;;;;18.50;99.90;;;;;;5075467;28;20105;-73
2022/03/31 03:22:31;;;;;;;;;;;18.50;99.90;;;;;;5073894;28;20362;-73
2022/03/31 03:24:59;;;;;;;;;;;18.50;99.90;;;;;;5075311;28;19909;-72
2022/03/31 03:27:26;;;;;;;;;;;18.50;99.90;;;;;;5074332;28;19930;-72
2022/03/31 03:29:53;;;;;;;;;;;18.30;99.90;;;;;;5074058;28;19908;-73
2022/03/31 03:32:20;;;;;;;;;;;18.30;99.90;;;;;;5074833;28;19908;-73
2022/03/31 03:34:47;;;;;;;;;;;18.30;99.90;;;;;;5075162;28;19908;-73
2022/03/31 03:37:13;;;;;;;;;;;18.30;99.90;;;;;;5075098;28;19916;-73
2022/03/31 03:39:40;;;;;;;;;;;18.40;99.90;;;;;;5075095;28;19960;-73
2022/03/31 03:42:07;;;;;;;;;;;18.50;99.90;;;;;;5073622;28;19914;-73
2022/03/31 03:44:35;;;;;;;;;;;18.50;99.90;;;;;;5075011;28;20278;-73
2022/03/31 03:47:02;;;;;;;;;;;18.50;99.90;;;;;;5074601;28;20298;-73
2022/03/31 03:49:28;;;;;;;;;;;18.50;99.90;;;;;;5074789;28;19912;-72
2022/03/31 03:51:55;;;;;;;;;;;18.50;99.90;;;;;;5074743;28;19912;-72
2022/03/31 03:54:22;;;;;;;;;;;18.50;99.90;;;;;;5074599;28;19916;-72
2022/03/31 03:56:48;;;;;;;;;;;18.60;99.90;;;;;;5074589;28;19955;-72
2022/03/31 03:59:15;;;;;;;;;;;18.70;99.90;;;;;;5074313;28;19912;-72
2022/03/31 04:01:41;;;;;;;;;;;18.90;99.90;;;;;;5074393;28;19909;-73
2022/03/31 04:04:08;;;;;;;;;;;19.30;99.90;;;;;;5074113;28;20385;-72
2022/03/31 04:06:35;;;;;;;;;;;19.80;99.90;;;;;;5074579;28;19916;-72
2022/03/31 04:09:03;;;;;;;;;;;20.00;99.90;;;;;;5074072;28;19999;-72
2022/03/31 04:11:29;;;;;;;;;;;20.10;99.90;;;;;;5074067;28;19919;-72
2022/03/31 04:13:56;;;;;;;;;;;20.20;99.90;;;;;;5073933;28;19915;-72
2022/03/31 04:16:23;;;;;;;;;;;19.90;99.90;;;;;;5074101;28;19913;-71
2022/03/31 04:18:49;;;;;;;;;;;19.40;99.90;;;;;;5074149;28;20011;-72
2022/03/31 04:21:16;;;;;;;;;;;18.70;99.90;;;;;;5074118;28;19962;-72
2022/03/31 04:23:43;;;;;;;;;;;18.10;99.90;;;;;;5074263;28;19978;-72
2022/03/31 04:26:09;;;;;;;;;;;18.00;99.90;;;;;;5073791;28;19913;-72
2022/03/31 04:28:36;;;;;;;;;;;17.90;99.90;;;;;;5074065;28;19909;-72
2022/03/31 04:31:03;;;;;;;;;;;18.00;99.90;;;;;;5074158;28;19909;-72
2022/03/31 04:33:29;;;;;;;;;;;18.20;99.90;;;;;;5073828;28;19930;-72
2022/03/31 04:35:56;;;;;;;;;;;18.20;99.90;;;;;;5073887;28;19954;-72
2022/03/31 04:38:23;;;;;;;;;;;18.20;99.90;;;;;;5073737;28;19978;-72
2022/03/31 04:40:49;;;;;;;;;;;18.30;99.90;;;;;;5073840;28;19909;-72
2022/03/31 04:43:16;;;;;;;;;;;18.50;99.90;;;;;;5073765;28;19908;-72
2022/03/31 04:45:43;;;;;;;;;;;18.70;99.90;;;;;;5073588;28;19969;-72
2022/03/31 04:48:09;;;;;;;;;;;19.00;99.90;;;;;;5073291;28;19922;-72
2022/03/31 04:50:36;;;;;;;;;;;19.10;99.90;;;;;;5073741;28;19970;-72
2022/03/31 04:53:03;;;;;;;;;;;19.30;99.90;;;;;;5073667;28;19908;-72
2022/03/31 04:55:29;;;;;;;;;;;19.60;99.90;;;;;;5073604;28;19916;-72
2022/03/31 04:57:56;;;;;;;;;;;19.70;99.90;;;;;;5073495;28;19952;-72
2022/03/31 05:00:22;;;;;;;;;;;19.80;99.90;;;;;;5073362;28;19909;-72
2022/03/31 05:02:49;;;;;;;;;;;19.80;99.90;;;;;;5073361;28;19931;-72
2022/03/31 05:05:16;;;;;;;;;;;19.80;99.90;;;;;;5073210;28;19921;-71
2022/03/31 05:07:42;;;;;;;;;;;19.80;99.90;;;;;;5071917;28;19998;-71
2022/03/31 05:10:12;;;;;;;;;;;19.90;99.90;;;;;;5072344;28;20322;-72
2022/03/31 05:12:39;;;;;;;;;;;19.80;99.90;;;;;;5073291;28;19914;-72
2022/03/31 05:15:06;;;;;;;;;;;19.80;99.90;;;;;;5073331;28;19999;-72
2022/03/31 05:17:34;;;;;;;;;;;19.80;99.90;;;;;;5073066;28;19912;-72
2022/03/31 05:20:04;;;;;;;;;;;19.80;99.90;;;;;;5073243;28;19915;-72
2022/03/31 05:22:33;;;;;;;;;;;19.80;99.90;;;;;;5072949;28;19916;-71
2022/03/31 05:25:00;;;;;;;;;;;19.70;99.90;;;;;;5072945;28;20323;-71
2022/03/31 05:27:27;;;;;;;;;;;19.70;99.90;;;;;;5072923;28;19917;-72
2022/03/31 05:29:53;;;;;;;;;;;19.80;99.90;;;;;;5073172;28;20022;-72
2022/03/31 05:32:20;;;;;;;;;;;19.80;99.90;;;;;;5072892;28;19920;-71
2022/03/31 05:34:47;;;;;;;;;;;19.80;99.90;;;;;;5072888;28;20375;-71
2022/03/31 05:37:14;;;;;;;;;;;19.60;99.90;;;;;;5073049;28;19998;-71
2022/03/31 05:39:41;;;;;;;;;;;19.50;99.90;;;;;;5072870;28;19916;-71
2022/03/31 05:42:08;;;;;;;;;;;19.40;99.90;;;;;;5072893;28;19909;-71
2022/03/31 05:44:34;;;;;;;;;;;19.30;99.90;;;;;;5072900;28;20007;-71
2022/03/31 05:47:01;;;;;;;;;;;19.10;99.90;;;;;;5072638;28;19913;-71
2022/03/31 05:49:28;;;;;;;;;;;19.10;99.90;;;;;;5072897;28;19996;-71
2022/03/31 05:51:54;;;;;;;;;;;19.10;99.90;;;;;;5073959;28;19923;-72
2022/03/31 05:54:21;;;;;;;;;;;19.30;99.90;;;;;;5074624;28;19962;-70
2022/03/31 05:56:48;;;;;;;;;;;19.30;99.90;;;;;;5074890;28;19909;-71
2022/03/31 05:59:15;;;;;;;;;;;19.00;99.90;;;;;;5074854;28;19908;-72
2022/03/31 06:01:42;;;;;;;;;;;18.30;99.90;;;;;;5074614;28;19909;-72
2022/03/31 06:04:09;;;;;;;;;;;17.70;99.90;;;;;;5073919;28;19920;-71
2022/03/31 06:06:36;;;;;;;;;;;17.40;99.90;;;;;;5074657;28;19928;-72
2022/03/31 06:09:03;;;;;;;;;;;17.20;99.90;;;;;;5074847;28;19912;-71
2022/03/31 06:11:30;;;;;;;;;;;17.30;99.90;;;;;;5074590;28;20391;-72
2022/03/31 06:13:57;;;;;;;;;;;17.40;99.90;;;;;;5074447;28;19954;-72
2022/03/31 06:16:24;;;;;;;;;;;17.40;99.90;;;;;;5076397;28;19930;-72
2022/03/31 06:18:50;;;;;;;;;;;17.30;99.90;;;;;;5064828;28;19912;-72
2022/03/31 06:21:17;;;;;;;;;;;17.20;99.90;;;;;;5058756;28;19952;-72
2022/03/31 06:23:43;;;;;;;;;;;17.00;99.90;;;;;;5056499;28;20739;-72
2022/03/31 06:26:10;;;;;;;;;;;16.80;99.90;;;;;;5057286;28;19909;-73
2022/03/31 06:28:37;;;;;;;;;;;16.60;99.90;;;;;;5058266;28;20333;-72
2022/03/31 06:31:04;;;;;;;;;;;16.70;99.90;;;;;;5054301;28;19964;-73
2022/03/31 06:33:30;;;;;;;;;;;16.60;99.90;;;;;;5054522;28;19915;-73
2022/03/31 06:35:57;;;;;;;;;;;16.70;99.90;;;;;;5054146;28;19920;-73
2022/03/31 06:38:24;;;;;;;;;;;16.80;99.90;;;;;;5053931;28;20371;-73
2022/03/31 06:43:36;;;;;;;;;;;16.70;99.90;;;;;;5054011;28;19924;-72
2022/03/31 06:46:03;;;;;;;;;;;16.50;99.90;;;;;;5053490;28;20287;-73
2022/03/31 06:48:30;;;;;;;;;;;16.30;99.90;;;;;;5053653;28;20011;-72
2022/03/31 06:50:57;;;;;;;;;;;16.20;99.90;;;;;;5053861;28;19920;-72
2022/03/31 06:53:24;;;;;;;;;;;16.10;99.90;;;;;;5053836;28;19920;-72
2022/03/31 06:55:51;;;;;;;;;;;16.20;99.90;;;;;;5053836;28;19924;-72
2022/03/31 06:58:18;;;;;;;;;;;16.20;99.90;;;;;;5053061;28;19920;-72
2022/03/31 07:00:45;;;;;;;;;;;16.20;99.90;;;;;;5053525;28;19917;-72
2022/03/31 07:03:12;;;;;;;;;;;16.20;99.90;;;;;;5052371;28;19917;-72
2022/03/31 07:05:38;;;;;;;;;;;16.20;99.90;;;;;;5053625;28;19917;-72
2022/03/31 07:08:05;;;;;;;;;;;16.30;99.90;;;;;;5053561;28;19921;-72
2022/03/31 07:10:32;;;;;;;;;;;16.30;99.90;;;;;;5053222;28;19909;-72
2022/03/31 07:13:00;;;;;;;;;;;16.30;99.90;;;;;;5053428;28;19931;-72
2022/03/31 07:15:27;;;;;;;;;;;16.70;99.90;;;;;;5053395;28;20003;-72
2022/03/31 07:17:54;;;;;;;;;;;16.70;99.90;;;;;;5053206;28;19909;-72
2022/03/31 07:20:23;;;;;;;;;;;16.70;99.90;;;;;;5053055;28;19948;-72
2022/03/31 07:22:50;;;;;;;;;;;16.90;99.90;;;;;;5052877;28;19909;-73
2022/03/31 07:25:17;;;;;;;;;;;17.00;99.90;;;;;;5053070;28;20292;-72
2022/03/31 07:27:44;;;;;;;;;;;16.90;99.90;;;;;;5052941;28;20027;-71
2022/03/31 07:30:12;;;;;;;;;;;16.90;99.90;;;;;;5052972;28;19960;-72
2022/03/31 07:32:48;;;;;;;;;;;17.20;99.90;;;;;;5052809;28;19909;-72
2022/03/31 07:35:15;;;;;;;;;;;17.60;99.90;;;;;;5052909;28;20375;-71
2022/03/31 07:37:41;;;;;;;;;;;17.80;99.90;;;;;;5052709;28;19909;-72
2022/03/31 07:40:08;;;;;;;;;;;18.00;99.90;;;;;;5052770;28;19909;-72
2022/03/31 07:42:35;;;;;;;;;;;18.10;99.90;;;;;;5052856;28;19958;-72
2022/03/31 07:45:02;;;;;;;;;;;18.20;99.90;;;;;;5052183;28;19991;-72
2022/03/31 07:47:28;;;;;;;;;;;18.20;99.90;;;;;;5052384;28;19917;-71
2022/03/31 07:49:55;;;;;;;;;;;18.20;99.90;;;;;;5052435;28;20363;-71
2022/03/31 07:52:22;;;;;;;;;;;18.20;99.90;;;;;;5052503;28;19916;-75
2022/03/31 07:54:49;;;;;;;;;;;18.20;99.90;;;;;;5052250;28;19913;-70
2022/03/31 07:57:16;;;;;;;;;;;18.20;99.90;;;;;;5052710;28;19917;-72
2022/03/31 07:59:42;;;;;;;;;;;18.20;99.90;;;;;;5052474;28;20462;-73
2022/03/31 08:02:09;;;;;;;;;;;18.30;99.90;;;;;;5051800;28;19909;-72
2022/03/31 08:04:35;;;;;;;;;;;18.30;99.90;;;;;;5052103;28;19925;-73
2022/03/31 08:07:02;;;;;;;;;;;18.20;99.90;;;;;;5054473;28;20015;-72
2022/03/31 08:09:29;;;;;;;;;;;18.20;99.90;;;;;;5054498;28;19915;-72
2022/03/31 08:11:55;;;;;;;;;;;18.20;99.90;;;;;;5054339;28;19909;-71
2022/03/31 08:14:22;;;;;;;;;;;18.30;99.90;;;;;;5053865;28;19962;-72
2022/03/31 08:16:49;;;;;;;;;;;18.30;99.90;;;;;;5054107;28;20398;-72
2022/03/31 08:19:17;;;;;;;;;;;18.30;99.90;;;;;;5054403;28;19909;-73
2022/03/31 08:21:44;;;;;;;;;;;18.40;99.90;;;;;;5054322;28;19909;-71
2022/03/31 08:24:13;;;;;;;;;;;18.40;99.90;;;;;;5053897;28;19952;-72
2022/03/31 08:26:43;;;;;;;;;;;18.30;99.90;;;;;;5052836;28;19959;-71
2022/03/31 08:29:10;;;;;;;;;;;18.30;99.90;;;;;;5054225;28;19913;-71
2022/03/31 08:31:37;;;;;;;;;;;18.30;99.90;;;;;;5054067;28;19913;-71
2022/03/31 08:34:04;;;;;;;;;;;18.30;99.90;;;;;;5054027;28;19963;-72
2022/03/31 08:36:31;;;;;;;;;;;18.30;99.90;;;;;;5053731;28;19909;-72
2022/03/31 08:38:58;;;;;;;;;;;18.20;99.90;;;;;;5053981;28;20259;-72
2022/03/31 08:41:26;;;;;;;;;;;18.20;99.90;;;;;;5054046;28;19912;-72
2022/03/31 08:43:53;;;;;;;;;;;18.30;99.90;;;;;;5053850;28;20047;-72
2022/03/31 08:46:21;;;;;;;;;;;18.20;99.90;;;;;;5053327;28;19920;-71
2022/03/31 08:48:47;;;;;;;;;;;18.20;99.90;;;;;;5053892;28;19920;-71
2022/03/31 08:51:14;;;;;;;;;;;18.20;99.90;;;;;;5053701;28;20366;-73
2022/03/31 08:53:41;;;;;;;;;;;18.20;99.90;;;;;;5053592;28;20353;-72
2022/03/31 08:56:10;;;;;;;;;;;18.20;99.90;;;;;;5053582;28;19909;-72
2022/03/31 08:58:36;;;;;;;;;;;18.20;99.90;;;;;;5053604;28;19912;-72
2022/03/31 09:01:03;;;;;;;;;;;18.40;99.90;;;;;;5053222;28;19909;-72
2022/03/31 09:03:34;;;;;;;;;;;18.30;99.90;;;;;;5052816;28;19924;-72
2022/03/31 09:06:00;;;;;;;;;;;18.40;99.90;;;;;;5053506;28;19974;-72
2022/03/31 09:08:27;;;;;;;;;;;18.30;99.90;;;;;;5053203;28;20379;-70
2022/03/31 09:11:00;;;;;;;;;;;18.40;99.90;;;;;;5053694;28;19909;-71
2022/03/31 09:13:28;;;;;;;;;;;18.40;99.90;;;;;;5053393;28;19971;-70
2022/03/31 09:16:01;;;;;;;;;;;18.40;99.90;;;;;;5053109;28;19913;-70
2022/03/31 09:18:28;;;;;;;;;;;18.50;99.90;;;;;;5052454;28;20411;-70
2022/03/31 09:20:57;;;;;;;;;;;18.50;99.90;;;;;;5053244;28;19959;-71
2022/03/31 09:23:25;;;;;;;;;;;18.50;99.90;;;;;;5053244;28;19909;-72
2022/03/31 09:25:53;;;;;;;;;;;18.50;99.90;;;;;;5052500;28;19954;-71
2022/03/31 09:28:24;;;;;;;;;;;18.50;99.90;;;;;;5052854;28;19917;-70
2022/03/31 09:30:52;;;;;;;;;;;18.50;99.90;;;;;;5053019;28;19909;-70
2022/03/31 09:33:25;;;;;;;;;;;18.50;99.90;;;;;;5052704;28;19919;-71
2022/03/31 09:35:59;;;;;;;;;;;18.30;99.90;;;;;;5053177;28;19939;-70
2022/03/31 09:38:26;;;;;;;;;;;17.90;99.90;;;;;;5052793;28;19909;-71
2022/03/31 09:40:53;;;;;;;;;;;17.40;99.90;;;;;;5052998;28;19909;-73
2022/03/31 09:43:20;;;;;;;;;;;17.00;99.90;;;;;;5053058;28;19909;-73
2022/03/31 09:45:48;;;;;;;;;;;17.00;99.90;;;;;;5052955;28;19909;-73
2022/03/31 09:48:19;;;;;;;;;;;17.20;99.90;;;;;;5052206;28;19939;-73
2022/03/31 09:50:46;;;;;;;;;;;17.20;99.90;;;;;;5052934;28;20054;-72
2022/03/31 09:53:13;;;;;;;;;;;17.50;99.90;;;;;;5053099;28;19909;-72
2022/03/31 09:55:41;;;;;;;;;;;17.60;99.90;;;;;;5052959;28;19944;-70
2022/03/31 09:58:08;;;;;;;;;;;17.70;99.90;;;;;;5052538;28;19912;-70
2022/03/31 10:00:35;;;;;;;;;;;17.70;99.90;;;;;;5052723;28;19912;-69
2022/03/31 10:03:04;;;;;;;;;;;17.80;99.90;;;;;;5052652;28;20406;-70
2022/03/31 10:05:32;;;;;;;;;;;17.80;99.90;;;;;;5052758;28;19920;-70
2022/03/31 10:08:00;;;;;;;;;;;17.80;99.90;;;;;;5052683;28;20008;-70
2022/03/31 10:10:27;;;;;;;;;;;17.80;99.90;;;;;;5052439;28;19955;-70
2022/03/31 10:13:04;;;;;;;;;;;17.80;99.90;;;;;;5052832;28;19916;-69
2022/03/31 10:15:31;;;;;;;;;;;17.90;99.90;;;;;;5052738;28;19995;-69
2022/03/31 10:17:58;;;;;;;;;;;17.90;99.90;;;;;;5052213;28;19909;-70
2022/03/31 10:20:25;;;;;;;;;;;17.90;99.90;;;;;;5052428;28;20005;-71
2022/03/31 10:25:41;;;;;;;;;;;17.90;99.90;;;;;;5052986;28;19916;-69
2022/03/31 10:28:12;;;;;;;;;;;18.00;99.90;;;;;;5052421;28;19917;-70
2022/03/31 10:30:39;;;;;;;;;;;18.00;99.90;;;;;;5052576;28;19909;-69
2022/03/31 10:33:11;;;;;;;;;;;18.00;99.90;;;;;;5052449;28;20345;-70
2022/03/31 10:35:39;;;;;;;;;;;18.10;99.90;;;;;;5052545;28;19944;-69
2022/03/31 10:38:14;;;;;;;;;;;18.10;99.90;;;;;;5055860;28;19952;-70
2022/03/31 10:40:44;;;;;;;;;;;18.20;99.90;;;;;;5054866;28;19909;-71
2022/03/31 10:43:20;;;;;;;;;;;18.30;99.90;;;;;;5056247;28;19915;-70
2022/03/31 10:45:47;;;;;;;;;;;18.10;99.90;;;;;;5055844;28;19909;-71
2022/03/31 10:48:19;;;;;;;;;;;17.80;99.90;;;;;;5055203;28;19963;-72
2022/03/31 10:50:46;;;;;;;;;;;17.60;99.90;;;;;;5056121;28;20217;-71
2022/03/31 10:53:13;;;;;;;;;;;17.50;99.90;;;;;;5055979;28;20351;-71
2022/03/31 10:55:47;;;;;;;;;;;17.30;99.90;;;;;;5055986;28;20278;-71
2022/03/31 10:58:21;;;;;;;;;;;17.30;99.90;;;;;;5055722;28;20415;-71
2022/03/31 11:00:49;;;;;;;;;;;17.30;99.90;;;;;;5055283;28;19962;-71
2022/03/31 11:03:19;;;;;;;;;;;17.20;99.90;;;;;;5055599;28;19962;-72
2022/03/31 11:05:47;;;;;;;;;;;17.20;99.90;;;;;;5055675;28;20376;-71
2022/03/31 11:08:17;;;;;;;;;;;17.10;99.90;;;;;;5055427;28;19924;-71
2022/03/31 11:10:52;;;;;;;;;;;17.10;99.90;;;;;;5055533;28;19909;-71
2022/03/31 11:13:20;;;;;;;;;;;17.10;99.90;;;;;;5055640;28;19912;-70
2022/03/31 11:15:47;;;;;;;;;;;17.10;99.90;;;;;;5054904;28;19909;-70
2022/03/31 11:18:14;;;;;;;;;;;17.10;99.90;;;;;;5055518;28;19952;-70
2022/03/31 11:20:40;;;;;;;;;;;17.00;99.90;;;;;;5055582;28;19909;-70
2022/03/31 11:23:07;;;;;;;;;;;17.00;99.90;;;;;;5055424;28;19909;-70
2022/03/31 11:25:34;;;;;;;;;;;17.00;99.90;;;;;;5054196;28;20015;-70
2022/03/31 11:28:08;;;;;;;;;;;17.00;99.90;;;;;;5055198;28;19917;-70
2022/03/31 11:30:34;;;;;;;;;;;17.00;99.90;;;;;;5054676;28;19959;-69
2022/03/31 11:33:02;;;;;;;;;;;16.90;99.90;;;;;;5055154;28;20355;-68
2022/03/31 11:35:29;;;;;;;;;;;16.90;99.90;;;;;;5055260;28;19928;-69
2022/03/31 11:38:01;;;;;;;;;;;16.90;99.90;;;;;;5055081;28;19916;-69
2022/03/31 11:40:32;;;;;;;;;;;16.90;99.90;;;;;;5054974;28;19970;-69
2022/03/31 11:42:59;;;;;;;;;;;16.90;99.90;;;;;;5055227;28;19918;-69
2022/03/31 11:45:29;;;;;;;;;;;16.90;99.90;;;;;;5054404;28;19909;-69
2022/03/31 11:47:57;;;;;;;;;;;16.90;99.90;;;;;;5054296;28;19917;-70
2022/03/31 11:50:24;;;;;;;;;;;16.90;99.90;;;;;;5054683;28;19908;-70
2022/03/31 11:52:52;;;;;;;;;;;16.90;99.90;;;;;;5054914;28;20304;-70
2022/03/31 11:55:21;;;;;;;;;;;16.90;99.90;;;;;;5054822;28;20279;-70
2022/03/31 11:57:52;;;;;;;;;;;16.90;99.90;;;;;;5054869;28;19935;-69
2022/03/31 12:00:19;;;;;;;;;;;16.90;99.90;;;;;;5053936;28;19913;-69
2022/03/31 12:03:15;;;;;;;;;;;16.90;99.90;;;;;;5054619;28;20325;-70
2022/03/31 12:05:42;;;;;;;;;;;16.90;99.90;;;;;;5058106;28;20274;-71
2022/03/31 12:08:09;;;;;;;;;;;16.60;99.90;;;;;;5054345;28;19924;-70
2022/03/31 12:10:35;;;;;;;;;;;16.40;99.90;;;;;;5054461;28;19919;-70
2022/03/31 12:13:02;;;;;;;;;;;16.20;99.90;;;;;;5054484;28;19916;-71
2022/03/31 12:15:30;;;;;;;;;;;16.10;99.90;;;;;;5053706;28;20421;-71
2022/03/31 12:17:57;;;;;;;;;;;16.00;99.90;;;;;;5053213;28;19955;-70
2022/03/31 12:20:23;;;;;;;;;;;16.00;99.90;;;;;;5054214;28;19912;-71
2022/03/31 12:22:51;;;;;;;;;;;16.00;99.90;;;;;;5054434;28;19934;-72
2022/03/31 12:25:32;;;;;;;;;;;15.70;99.90;;;;;;5054397;28;19909;-71
2022/03/31 12:28:02;;;;;;;;;;;15.40;99.90;;;;;;5054124;28;19921;-71
2022/03/31 12:30:39;;;;;;;;;;;15.20;99.90;;;;;;5053935;28;19909;-71
2022/03/31 12:33:16;;;;;;;;;;;15.10;99.90;;;;;;5054164;28;19916;-73
2022/03/31 12:35:42;;;;;;;;;;;15.10;99.90;;;;;;5054299;28;19909;-72
2022/03/31 12:38:09;;;;;;;;;;;15.00;99.90;;;;;;5053890;28;19910;-72
2022/03/31 12:40:36;;;;;;;;;;;15.00;99.90;;;;;;5054215;28;20351;-72
2022/03/31 12:43:02;;;;;;;;;;;15.10;99.90;;;;;;5052860;28;19916;-72
2022/03/31 12:45:29;;;;;;;;;;;15.20;99.90;;;;;;5053890;28;19909;-71
2022/03/31 12:47:56;;;;;;;;;;;15.20;99.90;;;;;;5053728;28;19921;-70
2022/03/31 12:50:24;;;;;;;;;;;15.30;99.90;;;;;;5053742;28;20390;-71
2022/03/31 12:52:54;;;;;;;;;;;15.30;99.90;;;;;;5053862;28;19908;-71
2022/03/31 12:55:27;;;;;;;;;;;15.20;99.90;;;;;;5053798;28;19908;-71
2022/03/31 12:57:55;;;;;;;;;;;15.10;99.90;;;;;;5053935;28;19923;-72
2022/03/31 13:00:22;;;;;;;;;;;15.10;99.90;;;;;;5052390;28;19916;-72
2022/03/31 13:02:49;;;;;;;;;;;15.10;99.90;;;;;;5053652;28;19909;-72
2022/03/31 13:05:19;;;;;;;;;;;15.20;99.90;;;;;;5053392;28;19931;-71
2022/03/31 13:07:46;;;;;;;;;;;15.20;99.90;;;;;;5053553;28;19916;-71
2022/03/31 13:10:13;;;;;;;;;;;15.30;99.90;;;;;;5053485;28;19909;-71
2022/03/31 13:12:39;;;;;;;;;;;15.20;99.90;;;;;;5053657;28;19916;-71
2022/03/31 13:15:10;;;;;;;;;;;15.30;99.90;;;;;;5053435;28;19909;-73
2022/03/31 13:17:37;;;;;;;;;;;15.40;99.90;;;;;;5053650;28;20577;-71
2022/03/31 13:20:05;;;;;;;;;;;15.50;99.90;;;;;;5053423;28;19940;-72
2022/03/31 13:22:31;;;;;;;;;;;15.60;99.90;;;;;;5053168;28;19909;-72
2022/03/31 13:24:58;;;;;;;;;;;15.70;99.90;;;;;;5053343;28;20267;-71
2022/03/31 13:27:26;;;;;;;;;;;15.70;99.90;;;;;;5053280;28;20002;-71
2022/03/31 13:29:54;;;;;;;;;;;15.80;99.90;;;;;;5053203;28;20368;-71
2022/03/31 13:32:21;;;;;;;;;;;15.90;99.90;;;;;;5053139;28;20018;-71
2022/03/31 13:34:48;;;;;;;;;;;15.90;99.90;;;;;;5053284;28;19916;-71
2022/03/31 13:37:16;;;;;;;;;;;16.00;99.90;;;;;;5053200;28;19908;-71
2022/03/31 13:39:43;;;;;;;;;;;15.90;99.90;;;;;;5053292;28;19909;-72
2022/03/31 13:42:10;;;;;;;;;;;15.90;99.90;;;;;;5052965;28;19988;-71
2022/03/31 13:44:37;;;;;;;;;;;15.90;99.90;;;;;;5052992;28;19979;-71
2022/03/31 13:47:04;;;;;;;;;;;15.90;99.90;;;;;;5053076;28;19917;-71
2022/03/31 13:49:31;;;;;;;;;;;15.90;99.90;;;;;;5053209;28;19913;-72
2022/03/31 13:51:59;;;;;;;;;;;15.90;99.90;;;;;;5053094;28;19991;-71
2022/03/31 13:54:27;;;;;;;;;;;16.00;99.90;;;;;;5052955;28;19913;-71
2022/03/31 13:56:55;;;;;;;;;;;16.10;99.90;;;;;;5053095;28;19939;-71
2022/03/31 14:02:08;;;;;;;;;;;16.10;99.90;;;;;;5053396;28;19955;-71
2022/03/31 14:04:36;;;;;;;;;;;16.20;99.90;;;;;;5052746;28;19966;-72
2022/03/31 14:07:12;;;;;;;;;;;16.20;99.90;;;;;;5052800;28;19921;-72
2022/03/31 14:09:39;;;;;;;;;;;16.10;99.90;;;;;;5053059;28;20008;-71
2022/03/31 14:12:08;;;;;;;;;;;16.00;99.90;;;;;;5054710;28;19916;-71
2022/03/31 14:14:34;;;;;;;;;;;15.80;99.90;;;;;;5056765;28;20408;-72
2022/03/31 14:17:01;;;;;;;;;;;15.70;99.90;;;;;;5056760;28;19916;-72
2022/03/31 14:19:35;;;;;;;;;;;15.70;99.90;;;;;;5056789;28;19912;-71
2022/03/31 14:22:03;;;;;;;;;;;15.70;99.90;;;;;;5056641;28;19916;-71
2022/03/31 14:24:30;;;;;;;;;;;15.70;99.90;;;;;;5056384;28;20006;-72
2022/03/31 14:26:57;;;;;;;;;;;15.60;99.90;;;;;;5056592;28;19920;-72